createdAt,value
2018-01-08T00:00:05.846Z,1008.2
2018-01-08T00:01:07.593Z,1008.2
2018-01-08T00:02:09.343Z,1008.3
2018-01-08T00:03:11.093Z,1008.3
2018-01-08T00:04:12.861Z,1008.3
2018-01-08T00:05:14.621Z,1008.3
2018-01-08T00:06:16.429Z,1008.3
2018-01-08T00:07:18.186Z,1008.2
2018-01-08T00:08:19.915Z,1008.2
2018-01-08T00:09:21.682Z,1008.2
2018-01-08T00:10:23.400Z,1008.1
2018-01-08T00:11:25.261Z,1008.2
2018-01-08T00:12:27.052Z,1008.1
2018-01-08T00:13:28.787Z,1008.2
2018-01-08T00:14:30.536Z,1008.1
2018-01-08T00:15:32.294Z,1008.2
2018-01-08T00:16:34.068Z,1008.1
2018-01-08T00:17:35.826Z,1008.2
2018-01-08T00:18:37.677Z,1008.2
2018-01-08T00:19:39.407Z,1008.2
2018-01-08T00:20:41.148Z,1008.2
2018-01-08T00:21:42.906Z,1008.2
2018-01-08T00:22:44.646Z,1008.2
2018-01-08T00:23:46.412Z,1008.2
2018-01-08T00:24:48.230Z,1008.2
2018-01-08T00:25:49.960Z,1008.2
2018-01-08T00:26:51.706Z,1008.2
2018-01-08T00:27:53.482Z,1008.2
2018-01-08T00:28:55.199Z,1008.2
2018-01-08T00:29:57.002Z,1008.3
2018-01-08T00:30:58.816Z,1008.3
2018-01-08T00:32:00.570Z,1008.3
2018-01-08T00:33:02.363Z,1008.3
2018-01-08T00:34:04.199Z,1008.3
2018-01-08T00:35:05.956Z,1008.2
2018-01-08T00:36:07.681Z,1008.3
2018-01-08T00:37:09.488Z,1008.2
2018-01-08T00:38:11.239Z,1008.2
2018-01-08T00:39:12.984Z,1008.3
2018-01-08T00:40:14.730Z,1008.3
2018-01-08T00:41:16.481Z,1008.2
2018-01-08T00:42:18.251Z,1008.3
2018-01-08T00:43:20.087Z,1008.2
2018-01-08T00:44:21.837Z,1008.2
2018-01-08T00:45:23.602Z,1008.1
2018-01-08T00:46:25.369Z,1008.2
2018-01-08T00:47:27.098Z,1008.2
2018-01-08T00:48:28.827Z,1008.2
2018-01-08T00:49:30.606Z,1008.2
2018-01-08T00:50:32.425Z,1008.1
2018-01-08T00:51:34.147Z,1008.1
2018-01-08T00:52:35.889Z,1008.1
2018-01-08T00:53:37.717Z,1008.1
2018-01-08T00:54:39.536Z,1008.1
2018-01-08T00:55:41.302Z,1008.1
2018-01-08T00:56:43.065Z,1008.1
2018-01-08T00:57:44.771Z,1008.1
2018-01-08T00:58:46.518Z,1008.1
2018-01-08T00:59:48.259Z,1008.2
2018-01-08T01:00:50.009Z,1008.1
2018-01-08T01:01:51.778Z,1008.2
2018-01-08T01:02:53.534Z,1008.2
2018-01-08T01:03:55.275Z,1008.2
2018-01-08T01:04:57.034Z,1008.2
2018-01-08T01:05:58.775Z,1008.1
2018-01-08T01:07:00.505Z,1008.2
2018-01-08T01:08:02.250Z,1008.1
2018-01-08T01:09:04.814Z,1008.2
2018-01-08T01:10:06.630Z,1008.2
2018-01-08T01:11:08.351Z,1008.2
2018-01-08T01:12:10.160Z,1008.2
2018-01-08T01:13:11.926Z,1008.2
2018-01-08T01:14:13.703Z,1008.2
2018-01-08T01:15:15.506Z,1008.2
2018-01-08T01:16:17.239Z,1008.2
2018-01-08T01:17:18.956Z,1008.2
2018-01-08T01:18:20.640Z,1008.1
2018-01-08T01:19:22.384Z,1008.2
2018-01-08T01:20:24.172Z,1008.2
2018-01-08T01:21:25.916Z,1008.1
2018-01-08T01:22:27.710Z,1008.1
2018-01-08T01:23:29.427Z,1008.1
2018-01-08T01:24:31.159Z,1008.0
2018-01-08T01:25:33.044Z,1008.1
2018-01-08T01:26:34.819Z,1008.0
2018-01-08T01:27:36.558Z,1008.0
2018-01-08T01:28:38.295Z,1008.0
2018-01-08T01:29:40.010Z,1008.1
2018-01-08T01:30:41.763Z,1008.1
2018-01-08T01:31:43.523Z,1008.1
2018-01-08T01:32:45.289Z,1008.1
2018-01-08T01:33:47.046Z,1008.1
2018-01-08T01:34:48.798Z,1008.1
2018-01-08T01:35:50.542Z,1008.1
2018-01-08T01:36:52.281Z,1008.1
2018-01-08T01:37:54.043Z,1008.2
2018-01-08T01:38:55.861Z,1008.2
2018-01-08T01:39:57.711Z,1008.2
2018-01-08T01:40:59.448Z,1008.2
2018-01-08T01:42:01.190Z,1008.2
2018-01-08T01:43:02.916Z,1008.3
2018-01-08T01:44:04.749Z,1008.3
2018-01-08T01:45:06.579Z,1008.3
2018-01-08T01:46:08.260Z,1008.3
2018-01-08T01:47:09.978Z,1008.3
2018-01-08T01:48:11.744Z,1008.3
2018-01-08T01:49:13.513Z,1008.3
2018-01-08T01:50:15.263Z,1008.3
2018-01-08T01:51:17.019Z,1008.4
2018-01-08T01:52:18.771Z,1008.4
2018-01-08T01:53:20.506Z,1008.5
2018-01-08T01:54:22.232Z,1008.5
2018-01-08T01:55:23.957Z,1008.5
2018-01-08T01:56:25.718Z,1008.4
2018-01-08T01:57:27.494Z,1008.4
2018-01-08T01:58:29.241Z,1008.4
2018-01-08T01:59:30.992Z,1008.4
2018-01-08T02:00:32.745Z,1008.4
2018-01-08T02:01:34.488Z,1008.5
2018-01-08T02:02:36.213Z,1008.5
2018-01-08T02:03:37.953Z,1008.4
2018-01-08T02:04:39.691Z,1008.5
2018-01-08T02:05:41.432Z,1008.6
2018-01-08T02:06:43.153Z,1008.6
2018-01-08T02:07:44.878Z,1008.6
2018-01-08T02:08:46.603Z,1008.6
2018-01-08T02:09:48.339Z,1008.6
2018-01-08T02:10:50.120Z,1008.6
2018-01-08T02:11:51.839Z,1008.6
2018-01-08T02:12:53.588Z,1008.6
2018-01-08T02:13:55.351Z,1008.6
2018-01-08T02:14:57.067Z,1008.6
2018-01-08T02:15:58.770Z,1008.7
2018-01-08T02:17:00.595Z,1008.7
2018-01-08T02:18:02.358Z,1008.8
2018-01-08T02:19:04.201Z,1008.8
2018-01-08T02:20:05.980Z,1008.8
2018-01-08T02:21:07.700Z,1008.9
2018-01-08T02:22:09.448Z,1008.9
2018-01-08T02:23:11.278Z,1008.9
2018-01-08T02:24:13.205Z,1009.0
2018-01-08T02:25:14.924Z,1009.0
2018-01-08T02:26:16.649Z,1009.1
2018-01-08T02:27:18.374Z,1009.1
2018-01-08T02:28:20.085Z,1009.2
2018-01-08T02:29:21.853Z,1009.2
2018-01-08T02:30:23.566Z,1009.2
2018-01-08T02:31:25.311Z,1009.2
2018-01-08T02:32:27.036Z,1009.2
2018-01-08T02:33:28.758Z,1009.3
2018-01-08T02:34:30.476Z,1009.3
2018-01-08T02:35:32.280Z,1009.3
2018-01-08T02:36:34.017Z,1009.4
2018-01-08T02:37:35.729Z,1009.4
2018-01-08T02:38:37.454Z,1009.5
2018-01-08T02:39:39.187Z,1009.6
2018-01-08T02:40:40.902Z,1009.6
2018-01-08T02:41:42.683Z,1009.7
2018-01-08T02:42:44.499Z,1009.7
2018-01-08T02:43:46.243Z,1009.7
2018-01-08T02:44:47.963Z,1009.8
2018-01-08T02:45:49.699Z,1009.7
2018-01-08T02:46:51.411Z,1009.8
2018-01-08T02:47:53.174Z,1009.8
2018-01-08T02:48:54.871Z,1009.8
2018-01-08T02:49:56.590Z,1009.8
2018-01-08T02:50:58.303Z,1009.8
2018-01-08T02:52:00.031Z,1009.9
2018-01-08T02:53:01.778Z,1009.9
2018-01-08T02:54:03.526Z,1010.0
2018-01-08T02:55:05.361Z,1010.0
2018-01-08T02:56:07.071Z,1010.0
2018-01-08T02:57:08.794Z,1010.0
2018-01-08T02:58:10.528Z,1010.1
2018-01-08T02:59:12.238Z,1010.1
2018-01-08T03:00:13.962Z,1010.1
2018-01-08T03:01:15.713Z,1010.1
2018-01-08T03:02:17.441Z,1010.1
2018-01-08T03:03:19.150Z,1010.1
2018-01-08T03:04:20.887Z,1010.1
2018-01-08T03:05:22.620Z,1010.1
2018-01-08T03:06:24.355Z,1010.1
2018-01-08T03:07:26.102Z,1010.2
2018-01-08T03:08:27.844Z,1010.3
2018-01-08T03:09:29.553Z,1010.3
2018-01-08T03:10:31.288Z,1010.3
2018-01-08T03:11:33.024Z,1010.3
2018-01-08T03:12:34.826Z,1010.3
2018-01-08T03:13:36.572Z,1010.3
2018-01-08T03:14:38.309Z,1010.3
2018-01-08T03:15:40.012Z,1010.4
2018-01-08T03:16:41.709Z,1010.4
2018-01-08T03:17:43.425Z,1010.5
2018-01-08T03:18:45.152Z,1010.5
2018-01-08T03:19:46.878Z,1010.5
2018-01-08T03:20:48.601Z,1010.5
2018-01-08T03:21:50.303Z,1010.6
2018-01-08T03:22:52.017Z,1010.6
2018-01-08T03:23:53.746Z,1010.6
2018-01-08T03:24:55.499Z,1010.7
2018-01-08T03:25:57.221Z,1010.7
2018-01-08T03:26:58.937Z,1010.7
2018-01-08T03:28:00.657Z,1010.6
2018-01-08T03:29:02.406Z,1010.7
2018-01-08T03:30:04.146Z,1010.7
2018-01-08T03:31:05.931Z,1010.7
2018-01-08T03:32:07.674Z,1010.7
2018-01-08T03:33:09.414Z,1010.7
2018-01-08T03:34:11.149Z,1010.7
2018-01-08T03:35:12.900Z,1010.7
2018-01-08T03:36:14.635Z,1010.7
2018-01-08T03:37:16.349Z,1010.6
2018-01-08T03:38:18.093Z,1010.7
2018-01-08T03:39:19.817Z,1010.7
2018-01-08T03:40:21.560Z,1010.6
2018-01-08T03:41:23.317Z,1010.7
2018-01-08T03:42:25.093Z,1010.7
2018-01-08T03:43:26.870Z,1010.7
2018-01-08T03:44:28.616Z,1010.7
2018-01-08T03:45:30.516Z,1010.7
2018-01-08T03:46:32.338Z,1010.7
2018-01-08T03:47:34.040Z,1010.7
2018-01-08T03:48:35.784Z,1010.7
2018-01-08T03:49:37.512Z,1010.7
2018-01-08T03:50:39.248Z,1010.7
2018-01-08T03:51:40.955Z,1010.7
2018-01-08T03:52:42.677Z,1010.8
2018-01-08T03:53:44.400Z,1010.8
2018-01-08T03:54:46.151Z,1010.8
2018-01-08T03:55:47.887Z,1010.8
2018-01-08T03:56:49.603Z,1010.8
2018-01-08T03:57:51.310Z,1010.8
2018-01-08T03:58:53.052Z,1010.9
2018-01-08T03:59:54.820Z,1010.8
2018-01-08T04:00:56.546Z,1010.8
2018-01-08T04:01:58.272Z,1010.9
2018-01-08T04:03:00.000Z,1010.9
2018-01-08T04:04:01.783Z,1010.9
2018-01-08T04:05:03.543Z,1010.8
2018-01-08T04:06:05.270Z,1010.8
2018-01-08T04:07:07.111Z,1010.8
2018-01-08T04:08:08.824Z,1010.9
2018-01-08T04:09:10.547Z,1011.0
2018-01-08T04:10:12.269Z,1010.9
2018-01-08T04:11:13.986Z,1010.9
2018-01-08T04:12:15.692Z,1010.8
2018-01-08T04:13:17.444Z,1010.8
2018-01-08T04:14:19.147Z,1010.8
2018-01-08T04:15:20.864Z,1010.8
2018-01-08T04:16:22.588Z,1010.8
2018-01-08T04:17:24.300Z,1010.7
2018-01-08T04:18:26.061Z,1010.8
2018-01-08T04:19:27.827Z,1010.9
2018-01-08T04:20:29.527Z,1010.8
2018-01-08T04:21:31.248Z,1010.8
2018-01-08T04:22:32.983Z,1010.8
2018-01-08T04:23:34.714Z,1010.7
2018-01-08T04:24:36.486Z,1010.8
2018-01-08T04:25:38.202Z,1010.7
2018-01-08T04:26:39.953Z,1010.7
2018-01-08T04:27:41.680Z,1010.8
2018-01-08T04:28:43.401Z,1010.8
2018-01-08T04:29:45.127Z,1010.8
2018-01-08T04:30:46.837Z,1010.8
2018-01-08T04:31:48.563Z,1010.7
2018-01-08T04:32:50.283Z,1010.7
2018-01-08T04:33:52.009Z,1010.7
2018-01-08T04:34:53.705Z,1010.7
2018-01-08T04:35:55.418Z,1010.7
2018-01-08T04:36:57.134Z,1010.8
2018-01-08T04:37:58.802Z,1010.8
2018-01-08T04:39:00.536Z,1010.8
2018-01-08T04:40:02.243Z,1010.7
2018-01-08T04:41:03.949Z,1010.7
2018-01-08T04:42:05.686Z,1010.7
2018-01-08T04:43:07.491Z,1010.7
2018-01-08T04:44:09.217Z,1010.7
2018-01-08T04:45:10.935Z,1010.6
2018-01-08T04:46:12.661Z,1010.6
2018-01-08T04:47:14.332Z,1010.6
2018-01-08T04:48:16.051Z,1010.6
2018-01-08T04:49:17.765Z,1010.6
2018-01-08T04:50:19.503Z,1010.6
2018-01-08T04:51:21.217Z,1010.6
2018-01-08T04:52:22.941Z,1010.6
2018-01-08T04:53:24.692Z,1010.6
2018-01-08T04:54:26.408Z,1010.6
2018-01-08T04:55:28.145Z,1010.6
2018-01-08T04:56:29.865Z,1010.6
2018-01-08T04:57:31.588Z,1010.6
2018-01-08T04:58:33.313Z,1010.5
2018-01-08T04:59:35.980Z,1010.5
2018-01-08T05:00:36.735Z,1010.6
2018-01-08T05:01:38.451Z,1010.5
2018-01-08T05:02:40.191Z,1010.5
2018-01-08T05:03:41.937Z,1010.5
2018-01-08T05:04:43.646Z,1010.5
2018-01-08T05:05:45.391Z,1010.5
2018-01-08T05:06:47.094Z,1010.5
2018-01-08T05:07:48.821Z,1010.5
2018-01-08T05:08:50.544Z,1010.4
2018-01-08T05:09:52.275Z,1010.4
2018-01-08T05:10:53.984Z,1010.5
2018-01-08T05:11:55.711Z,1010.5
2018-01-08T05:12:57.431Z,1010.6
2018-01-08T05:13:59.142Z,1010.6
2018-01-08T05:15:00.859Z,1010.6
2018-01-08T05:16:02.566Z,1010.6
2018-01-08T05:17:04.277Z,1010.7
2018-01-08T05:18:06.004Z,1010.7
2018-01-08T05:19:07.811Z,1010.7
2018-01-08T05:20:09.527Z,1010.7
2018-01-08T05:21:11.242Z,1010.6
2018-01-08T05:22:12.953Z,1010.7
2018-01-08T05:23:14.695Z,1010.7
2018-01-08T05:24:16.404Z,1010.7
2018-01-08T05:25:18.124Z,1010.8
2018-01-08T05:26:19.911Z,1010.7
2018-01-08T05:27:21.571Z,1010.8
2018-01-08T05:28:23.310Z,1010.8
2018-01-08T05:29:25.030Z,1010.8
2018-01-08T05:30:26.745Z,1010.8
2018-01-08T05:31:28.448Z,1010.8
2018-01-08T05:32:30.160Z,1010.8
2018-01-08T05:33:31.880Z,1010.8
2018-01-08T05:34:33.592Z,1010.8
2018-01-08T05:35:35.308Z,1010.8
2018-01-08T05:36:37.017Z,1010.8
2018-01-08T05:37:38.737Z,1010.8
2018-01-08T05:38:40.481Z,1010.8
2018-01-08T05:39:42.198Z,1010.8
2018-01-08T05:40:43.907Z,1010.8
2018-01-08T05:41:45.637Z,1010.9
2018-01-08T05:42:47.355Z,1010.9
2018-01-08T05:43:49.075Z,1010.9
2018-01-08T05:44:50.801Z,1010.9
2018-01-08T05:45:52.539Z,1010.9
2018-01-08T05:46:54.304Z,1010.9
2018-01-08T05:47:56.026Z,1010.9
2018-01-08T05:48:57.788Z,1010.9
2018-01-08T05:49:59.498Z,1011.0
2018-01-08T05:51:01.262Z,1011.0
2018-01-08T05:52:03.738Z,1011.0
2018-01-08T05:53:05.435Z,1011.0
2018-01-08T05:54:07.145Z,1011.1
2018-01-08T05:55:08.873Z,1011.1
2018-01-08T05:56:10.626Z,1011.2
2018-01-08T05:57:12.368Z,1011.2
2018-01-08T05:58:14.152Z,1011.2
2018-01-08T05:59:15.894Z,1011.2
2018-01-08T06:00:17.653Z,1011.2
2018-01-08T06:01:19.407Z,1011.2
2018-01-08T06:02:21.150Z,1011.2
2018-01-08T06:03:22.859Z,1011.3
2018-01-08T06:04:24.549Z,1011.3
2018-01-08T06:05:26.254Z,1011.3
2018-01-08T06:06:27.963Z,1011.4
2018-01-08T06:07:29.666Z,1011.4
2018-01-08T06:08:31.400Z,1011.4
2018-01-08T06:09:33.125Z,1011.5
2018-01-08T06:10:34.872Z,1011.4
2018-01-08T06:11:36.638Z,1011.5
2018-01-08T06:12:38.385Z,1011.4
2018-01-08T06:13:40.110Z,1011.5
2018-01-08T06:14:41.844Z,1011.5
2018-01-08T06:15:43.561Z,1011.5
2018-01-08T06:16:45.281Z,1011.5
2018-01-08T06:17:46.998Z,1011.5
2018-01-08T06:18:48.734Z,1011.5
2018-01-08T06:19:50.441Z,1011.6
2018-01-08T06:20:52.167Z,1011.6
2018-01-08T06:21:53.886Z,1011.6
2018-01-08T06:22:55.660Z,1011.6
2018-01-08T06:23:57.404Z,1011.6
2018-01-08T06:24:59.140Z,1011.6
2018-01-08T06:26:00.882Z,1011.7
2018-01-08T06:27:02.615Z,1011.7
2018-01-08T06:28:04.328Z,1011.8
2018-01-08T06:29:06.053Z,1011.8
2018-01-08T06:30:07.831Z,1011.8
2018-01-08T06:31:09.554Z,1011.8
2018-01-08T06:32:11.517Z,1011.8
2018-01-08T06:33:13.220Z,1011.8
2018-01-08T06:34:14.959Z,1011.9
2018-01-08T06:35:16.659Z,1011.8
2018-01-08T06:36:18.373Z,1011.9
2018-01-08T06:37:20.162Z,1011.9
2018-01-08T06:38:21.891Z,1011.9
2018-01-08T06:39:23.617Z,1011.9
2018-01-08T06:40:25.370Z,1012.0
2018-01-08T06:41:27.094Z,1012.0
2018-01-08T06:42:28.805Z,1012.0
2018-01-08T06:43:30.500Z,1012.0
2018-01-08T06:44:32.227Z,1012.0
2018-01-08T06:45:33.938Z,1012.0
2018-01-08T06:46:35.663Z,1011.9
2018-01-08T06:47:37.425Z,1012.0
2018-01-08T06:48:39.131Z,1012.0
2018-01-08T06:49:40.918Z,1012.0
2018-01-08T06:50:42.580Z,1012.0
2018-01-08T06:51:44.343Z,1012.0
2018-01-08T06:52:46.212Z,1012.0
2018-01-08T06:53:47.911Z,1012.0
2018-01-08T06:54:49.619Z,1012.0
2018-01-08T06:55:51.351Z,1012.1
2018-01-08T06:56:53.070Z,1012.1
2018-01-08T06:57:54.789Z,1012.1
2018-01-08T06:58:56.510Z,1012.2
2018-01-08T06:59:58.271Z,1012.2
2018-01-08T07:01:00.018Z,1012.2
2018-01-08T07:02:01.756Z,1012.3
2018-01-08T07:03:03.459Z,1012.3
2018-01-08T07:04:05.230Z,1012.3
2018-01-08T07:05:07.035Z,1012.3
2018-01-08T07:06:08.841Z,1012.4
2018-01-08T07:07:10.545Z,1012.4
2018-01-08T07:08:12.332Z,1012.4
2018-01-08T07:09:14.016Z,1012.5
2018-01-08T07:10:15.750Z,1012.5
2018-01-08T07:11:17.494Z,1012.5
2018-01-08T07:12:19.321Z,1012.5
2018-01-08T07:13:21.064Z,1012.5
2018-01-08T07:14:22.790Z,1012.5
2018-01-08T07:15:24.532Z,1012.6
2018-01-08T07:16:26.289Z,1012.6
2018-01-08T07:17:28.034Z,1012.6
2018-01-08T07:18:29.763Z,1012.7
2018-01-08T07:19:31.495Z,1012.7
2018-01-08T07:20:33.226Z,1012.7
2018-01-08T07:21:34.968Z,1012.8
2018-01-08T07:22:36.701Z,1012.8
2018-01-08T07:23:38.420Z,1012.9
2018-01-08T07:24:40.150Z,1012.9
2018-01-08T07:25:41.866Z,1012.9
2018-01-08T07:26:43.608Z,1013.0
2018-01-08T07:27:45.312Z,1013.0
2018-01-08T07:28:47.046Z,1013.0
2018-01-08T07:29:48.758Z,1013.1
2018-01-08T07:30:50.498Z,1013.0
2018-01-08T07:31:52.226Z,1013.1
2018-01-08T07:32:53.948Z,1013.1
2018-01-08T07:33:55.674Z,1013.1
2018-01-08T07:34:57.398Z,1013.1
2018-01-08T07:35:59.150Z,1013.2
2018-01-08T07:37:00.884Z,1013.2
2018-01-08T07:38:02.603Z,1013.2
2018-01-08T07:39:04.319Z,1013.2
2018-01-08T07:40:06.068Z,1013.2
2018-01-08T07:41:07.830Z,1013.2
2018-01-08T07:42:09.621Z,1013.2
2018-01-08T07:43:11.336Z,1013.1
2018-01-08T07:44:13.107Z,1013.1
2018-01-08T07:45:14.837Z,1013.1
2018-01-08T07:46:16.572Z,1013.1
2018-01-08T07:47:18.307Z,1013.1
2018-01-08T07:48:20.048Z,1013.1
2018-01-08T07:49:21.782Z,1013.1
2018-01-08T07:50:23.494Z,1013.1
2018-01-08T07:51:25.262Z,1013.1
2018-01-08T07:52:27.018Z,1013.1
2018-01-08T07:53:28.749Z,1013.1
2018-01-08T07:54:30.476Z,1013.2
2018-01-08T07:55:32.186Z,1013.2
2018-01-08T07:56:33.965Z,1013.2
2018-01-08T07:57:35.702Z,1013.3
2018-01-08T07:58:37.421Z,1013.3
2018-01-08T07:59:39.166Z,1013.3
2018-01-08T08:00:40.884Z,1013.4
2018-01-08T08:01:42.592Z,1013.4
2018-01-08T08:02:44.352Z,1013.5
2018-01-08T08:03:46.093Z,1013.5
2018-01-08T08:04:47.805Z,1013.5
2018-01-08T08:05:49.561Z,1013.6
2018-01-08T08:06:51.270Z,1013.5
2018-01-08T08:07:52.987Z,1013.6
2018-01-08T08:08:54.712Z,1013.6
2018-01-08T08:09:56.455Z,1013.5
2018-01-08T08:10:58.210Z,1013.5
2018-01-08T08:11:59.944Z,1013.5
2018-01-08T08:13:01.691Z,1013.5
2018-01-08T08:14:03.457Z,1013.5
2018-01-08T08:15:05.188Z,1013.4
2018-01-08T08:16:06.919Z,1013.5
2018-01-08T08:17:08.643Z,1013.5
2018-01-08T08:18:10.403Z,1013.5
2018-01-08T08:19:12.139Z,1013.6
2018-01-08T08:20:13.872Z,1013.6
2018-01-08T08:21:15.599Z,1013.6
2018-01-08T08:22:17.325Z,1013.6
2018-01-08T08:23:19.038Z,1013.7
2018-01-08T08:24:20.780Z,1013.7
2018-01-08T08:25:22.525Z,1013.7
2018-01-08T08:26:24.236Z,1013.7
2018-01-08T08:27:25.970Z,1013.7
2018-01-08T08:28:27.686Z,1013.7
2018-01-08T08:29:29.433Z,1013.7
2018-01-08T08:30:31.172Z,1013.7
2018-01-08T08:31:32.982Z,1013.7
2018-01-08T08:32:34.710Z,1013.7
2018-01-08T08:33:36.462Z,1013.8
2018-01-08T08:34:38.179Z,1013.8
2018-01-08T08:35:39.941Z,1013.9
2018-01-08T08:36:41.657Z,1013.9
2018-01-08T08:37:43.374Z,1013.9
2018-01-08T08:38:45.104Z,1013.9
2018-01-08T08:39:46.844Z,1013.9
2018-01-08T08:40:48.581Z,1013.9
2018-01-08T08:41:50.358Z,1013.9
2018-01-08T08:42:52.244Z,1013.9
2018-01-08T08:43:54.015Z,1013.9
2018-01-08T08:44:55.814Z,1013.8
2018-01-08T08:45:57.570Z,1013.8
2018-01-08T08:46:59.361Z,1013.9
2018-01-08T08:48:01.267Z,1014.0
2018-01-08T08:49:03.053Z,1014.0
2018-01-08T08:50:04.857Z,1014.0
2018-01-08T08:51:06.612Z,1014.0
2018-01-08T08:52:08.342Z,1014.1
2018-01-08T08:53:10.137Z,1014.1
2018-01-08T08:54:11.851Z,1014.1
2018-01-08T08:55:13.626Z,1014.2
2018-01-08T08:56:15.371Z,1014.2
2018-01-08T08:57:17.093Z,1014.1
2018-01-08T08:58:18.916Z,1014.1
2018-01-08T08:59:20.575Z,1014.1
2018-01-08T09:00:22.351Z,1014.0
2018-01-08T09:01:24.164Z,1014.1
2018-01-08T09:02:25.887Z,1014.1
2018-01-08T09:03:27.630Z,1014.0
2018-01-08T09:04:29.382Z,1014.0
2018-01-08T09:05:31.371Z,1014.0
2018-01-08T09:06:33.084Z,1014.0
2018-01-08T09:07:34.842Z,1014.0
2018-01-08T09:08:36.616Z,1014.0
2018-01-08T09:09:38.348Z,1014.0
2018-01-08T09:10:40.107Z,1014.0
2018-01-08T09:11:41.847Z,1014.0
2018-01-08T09:12:43.569Z,1014.0
2018-01-08T09:13:45.339Z,1014.0
2018-01-08T09:14:47.151Z,1014.0
2018-01-08T09:15:48.973Z,1014.1
2018-01-08T09:16:51.057Z,1014.1
2018-01-08T09:17:52.795Z,1014.1
2018-01-08T09:18:54.524Z,1014.2
2018-01-08T09:19:56.346Z,1014.2
2018-01-08T09:20:58.112Z,1014.1
2018-01-08T09:21:59.839Z,1014.2
2018-01-08T09:23:01.587Z,1014.1
2018-01-08T09:24:03.317Z,1014.2
2018-01-08T09:25:05.080Z,1014.2
2018-01-08T09:26:06.828Z,1014.3
2018-01-08T09:27:08.612Z,1014.2
2018-01-08T09:28:10.410Z,1014.2
2018-01-08T09:29:12.148Z,1014.3
2018-01-08T09:30:13.884Z,1014.3
2018-01-08T09:31:15.607Z,1014.2
2018-01-08T09:32:17.357Z,1014.3
2018-01-08T09:33:19.104Z,1014.3
2018-01-08T09:34:20.850Z,1014.3
2018-01-08T09:35:22.623Z,1014.3
2018-01-08T09:36:24.365Z,1014.3
2018-01-08T09:37:26.096Z,1014.3
2018-01-08T09:38:27.841Z,1014.3
2018-01-08T09:39:29.588Z,1014.3
2018-01-08T09:40:32.285Z,1014.3
2018-01-08T09:41:34.046Z,1014.4
2018-01-08T09:42:35.837Z,1014.4
2018-01-08T09:43:37.607Z,1014.3
2018-01-08T09:44:39.360Z,1014.3
2018-01-08T09:45:41.113Z,1014.4
2018-01-08T09:46:42.877Z,1014.4
2018-01-08T09:47:44.600Z,1014.3
2018-01-08T09:48:46.360Z,1014.3
2018-01-08T09:49:48.136Z,1014.3
2018-01-08T09:50:49.866Z,1014.4
2018-01-08T09:51:51.602Z,1014.4
2018-01-08T09:52:53.339Z,1014.4
2018-01-08T09:53:55.082Z,1014.4
2018-01-08T09:54:56.827Z,1014.4
2018-01-08T09:55:58.564Z,1014.4
2018-01-08T09:57:00.300Z,1014.3
2018-01-08T09:58:02.042Z,1014.3
2018-01-08T09:59:03.764Z,1014.3
2018-01-08T10:00:05.477Z,1014.3
2018-01-08T10:01:07.218Z,1014.2
2018-01-08T10:02:08.976Z,1014.2
2018-01-08T10:03:10.762Z,1014.2
2018-01-08T10:04:12.539Z,1014.2
2018-01-08T10:05:14.286Z,1014.3
2018-01-08T10:06:16.009Z,1014.3
2018-01-08T10:07:17.750Z,1014.3
2018-01-08T10:08:19.585Z,1014.3
2018-01-08T10:09:21.650Z,1014.4
2018-01-08T10:10:23.384Z,1014.4
2018-01-08T10:11:25.134Z,1014.4
2018-01-08T10:12:26.892Z,1014.4
2018-01-08T10:13:28.626Z,1014.4
2018-01-08T10:14:30.379Z,1014.4
2018-01-08T10:15:32.106Z,1014.4
2018-01-08T10:16:33.862Z,1014.5
2018-01-08T10:17:35.616Z,1014.5
2018-01-08T10:18:37.380Z,1014.5
2018-01-08T10:19:39.125Z,1014.5
2018-01-08T10:20:40.871Z,1014.5
2018-01-08T10:21:42.619Z,1014.5
2018-01-08T10:22:44.390Z,1014.5
2018-01-08T10:23:46.138Z,1014.5
2018-01-08T10:24:47.945Z,1014.6
2018-01-08T10:25:49.693Z,1014.5
2018-01-08T10:26:51.457Z,1014.5
2018-01-08T10:27:53.203Z,1014.5
2018-01-08T10:28:54.918Z,1014.6
2018-01-08T10:29:56.665Z,1014.6
2018-01-08T10:30:58.397Z,1014.6
2018-01-08T10:32:00.161Z,1014.7
2018-01-08T10:33:01.931Z,1014.6
2018-01-08T10:34:03.682Z,1014.7
2018-01-08T10:35:05.417Z,1014.7
2018-01-08T10:36:07.193Z,1014.7
2018-01-08T10:37:08.927Z,1014.8
2018-01-08T10:38:10.710Z,1014.8
2018-01-08T10:39:12.485Z,1014.8
2018-01-08T10:40:14.243Z,1014.7
2018-01-08T10:41:15.975Z,1014.7
2018-01-08T10:42:17.756Z,1014.7
2018-01-08T10:43:19.502Z,1014.7
2018-01-08T10:44:21.260Z,1014.7
2018-01-08T10:45:23.018Z,1014.7
2018-01-08T10:46:24.758Z,1014.7
2018-01-08T10:47:26.489Z,1014.6
2018-01-08T10:48:28.226Z,1014.7
2018-01-08T10:49:29.978Z,1014.6
2018-01-08T10:50:31.719Z,1014.6
2018-01-08T10:51:33.999Z,1014.6
2018-01-08T10:52:35.770Z,1014.5
2018-01-08T10:53:37.519Z,1014.5
2018-01-08T10:54:39.269Z,1014.5
2018-01-08T10:55:41.377Z,1014.5
2018-01-08T10:56:43.139Z,1014.4
2018-01-08T10:57:44.962Z,1014.4
2018-01-08T10:58:46.788Z,1014.4
2018-01-08T10:59:48.743Z,1014.4
2018-01-08T11:00:50.838Z,1014.4
2018-01-08T11:01:52.904Z,1014.3
2018-01-08T11:02:54.983Z,1014.3
2018-01-08T11:03:57.047Z,1014.3
2018-01-08T11:04:59.243Z,1014.4
2018-01-08T11:06:01.315Z,1014.3
2018-01-08T11:07:03.420Z,1014.3
2018-01-08T11:08:05.165Z,1014.3
2018-01-08T11:09:06.905Z,1014.3
2018-01-08T11:10:08.674Z,1014.3
2018-01-08T11:11:10.411Z,1014.3
2018-01-08T11:12:12.164Z,1014.3
2018-01-08T11:13:13.906Z,1014.2
2018-01-08T11:14:15.688Z,1014.2
2018-01-08T11:15:17.452Z,1014.2
2018-01-08T11:16:20.683Z,1014.2
2018-01-08T11:17:22.410Z,1014.2
2018-01-08T11:18:24.190Z,1014.2
2018-01-08T11:19:25.933Z,1014.2
2018-01-08T11:20:27.658Z,1014.2
2018-01-08T11:21:29.411Z,1014.3
2018-01-08T11:22:31.168Z,1014.2
2018-01-08T11:23:32.892Z,1014.2
2018-01-08T11:24:34.664Z,1014.2
2018-01-08T11:25:36.412Z,1014.2
2018-01-08T11:26:38.162Z,1014.2
2018-01-08T11:27:39.901Z,1014.2
2018-01-08T11:28:41.648Z,1014.2
2018-01-08T11:29:43.388Z,1014.2
2018-01-08T11:30:45.162Z,1014.2
2018-01-08T11:31:46.912Z,1014.2
2018-01-08T11:32:48.681Z,1014.2
2018-01-08T11:33:50.384Z,1014.2
2018-01-08T11:34:52.113Z,1014.3
2018-01-08T11:35:53.898Z,1014.3
2018-01-08T11:36:55.664Z,1014.3
2018-01-08T11:37:57.396Z,1014.2
2018-01-08T11:38:59.132Z,1014.3
2018-01-08T11:40:00.916Z,1014.3
2018-01-08T11:41:02.678Z,1014.3
2018-01-08T11:42:04.390Z,1014.3
2018-01-08T11:43:06.134Z,1014.3
2018-01-08T11:44:07.863Z,1014.3
2018-01-08T11:45:09.613Z,1014.3
2018-01-08T11:46:11.343Z,1014.3
2018-01-08T11:47:13.090Z,1014.3
2018-01-08T11:48:14.849Z,1014.3
2018-01-08T11:49:16.604Z,1014.3
2018-01-08T11:50:18.369Z,1014.3
2018-01-08T11:51:20.122Z,1014.3
2018-01-08T11:52:21.834Z,1014.3
2018-01-08T11:53:23.606Z,1014.3
2018-01-08T11:54:25.364Z,1014.2
2018-01-08T11:55:27.102Z,1014.2
2018-01-08T11:56:28.861Z,1014.2
2018-01-08T11:57:30.611Z,1014.2
2018-01-08T11:58:32.346Z,1014.2
2018-01-08T11:59:34.106Z,1014.2
2018-01-08T12:00:35.840Z,1014.3
2018-01-08T12:01:37.570Z,1014.3
2018-01-08T12:02:39.312Z,1014.2
2018-01-08T12:03:41.043Z,1014.3
2018-01-08T12:04:42.791Z,1014.3
2018-01-08T12:05:44.537Z,1014.3
2018-01-08T12:06:46.298Z,1014.3
2018-01-08T12:07:48.035Z,1014.3
2018-01-08T12:08:49.783Z,1014.3
2018-01-08T12:09:51.534Z,1014.4
2018-01-08T12:10:53.310Z,1014.4
2018-01-08T12:11:55.036Z,1014.5
2018-01-08T12:12:56.805Z,1014.5
2018-01-08T12:13:58.539Z,1014.5
2018-01-08T12:15:00.302Z,1014.5
2018-01-08T12:16:02.046Z,1014.5
2018-01-08T12:17:03.781Z,1014.4
2018-01-08T12:18:05.536Z,1014.4
2018-01-08T12:19:07.295Z,1014.4
2018-01-08T12:20:09.040Z,1014.4
2018-01-08T12:21:10.801Z,1014.4
2018-01-08T12:22:12.544Z,1014.4
2018-01-08T12:23:14.302Z,1014.4
2018-01-08T12:24:16.045Z,1014.4
2018-01-08T12:25:17.797Z,1014.5
2018-01-08T12:26:19.591Z,1014.4
2018-01-08T12:27:21.330Z,1014.5
2018-01-08T12:28:23.072Z,1014.5
2018-01-08T12:29:24.846Z,1014.6
2018-01-08T12:30:26.577Z,1014.6
2018-01-08T12:31:28.319Z,1014.6
2018-01-08T12:32:30.076Z,1014.6
2018-01-08T12:33:31.986Z,1014.6
2018-01-08T12:34:33.780Z,1014.6
2018-01-08T12:35:35.570Z,1014.6
2018-01-08T12:36:37.345Z,1014.5
2018-01-08T12:37:39.066Z,1014.5
2018-01-08T12:38:40.828Z,1014.5
2018-01-08T12:39:42.600Z,1014.5
2018-01-08T12:40:44.339Z,1014.4
2018-01-08T12:41:46.090Z,1014.3
2018-01-08T12:42:47.840Z,1014.4
2018-01-08T12:43:49.573Z,1014.4
2018-01-08T12:44:51.337Z,1014.4
2018-01-08T12:45:53.143Z,1014.4
2018-01-08T12:46:54.903Z,1014.4
2018-01-08T12:47:56.724Z,1014.4
2018-01-08T12:48:58.465Z,1014.4
2018-01-08T12:50:00.242Z,1014.4